createdAt,value
2023-04-12T00:01:22.171Z,99641.50
2023-04-12T00:06:27.750Z,99638.94
2023-04-12T00:11:32.233Z,99653.50
2023-04-12T00:16:36.294Z,99652.63
2023-04-12T00:21:39.025Z,99631.94
2023-04-12T00:26:41.699Z,99663.75
2023-04-12T00:31:44.388Z,99634.50
2023-04-12T00:36:47.118Z,99674.06
2023-04-12T00:41:49.857Z,99653.41
2023-04-12T00:46:52.582Z,99654.28
2023-04-12T00:51:55.503Z,99660.19
2023-04-12T00:57:00.038Z,99662.69
2023-04-12T01:02:03.389Z,99659.19
2023-04-12T01:07:21.692Z,99663.50
2023-04-12T01:12:39.351Z,99649.78
2023-04-12T01:18:02.956Z,99650.63
2023-04-12T01:23:43.060Z,99648.00
2023-04-12T01:28:47.052Z,99651.38
2023-04-12T01:33:52.090Z,99648.66
2023-04-12T01:38:55.837Z,99657.88
2023-04-12T01:43:58.644Z,99646.47
2023-04-12T01:49:03.422Z,99629.28
2023-04-12T01:54:13.701Z,99653.25
2023-04-12T01:59:17.999Z,99642.78
2023-04-12T02:04:22.093Z,99642.81
2023-04-12T02:09:24.783Z,99637.63
2023-04-12T02:14:27.707Z,99635.88
2023-04-12T02:19:30.617Z,99635.03
2023-04-12T02:24:33.792Z,99639.41
2023-04-12T02:29:36.356Z,99632.59
2023-04-12T02:34:40.085Z,99633.56
2023-04-12T02:39:57.088Z,99633.56
2023-04-12T02:45:01.324Z,99618.13
2023-04-12T02:50:05.015Z,99608.72
2023-04-12T02:55:13.270Z,99608.00
2023-04-12T03:00:16.946Z,99637.38
2023-04-12T03:05:23.295Z,99639.19
2023-04-12T03:10:27.327Z,99621.28
2023-04-12T03:15:39.844Z,99625.88
2023-04-12T03:20:46.015Z,99639.78
2023-04-12T03:25:50.936Z,99638.13
2023-04-12T03:31:13.791Z,99630.44
2023-04-12T03:36:24.273Z,99646.75
2023-04-12T03:41:46.661Z,99646.72
2023-04-12T03:46:50.527Z,99643.22
2023-04-12T03:51:53.549Z,99636.25
2023-04-12T03:56:56.862Z,99635.34
2023-04-12T04:02:27.954Z,99638.75
2023-04-12T04:07:33.535Z,99649.06
2023-04-12T04:12:36.226Z,99631.81
2023-04-12T04:17:40.467Z,99643.59
2023-04-12T04:22:44.782Z,99652.00
2023-04-12T04:27:49.642Z,99651.72
2023-04-12T04:32:53.020Z,99650.59
2023-04-12T04:37:59.019Z,99632.19
2023-04-12T04:43:03.189Z,99633.41
2023-04-12T04:48:11.788Z,99635.47
2023-04-12T04:53:16.547Z,99644.47
2023-04-12T04:58:19.300Z,99647.34
2023-04-12T05:03:22.071Z,99649.38
2023-04-12T05:08:25.267Z,99643.63
2023-04-12T05:13:27.932Z,99629.28
2023-04-12T05:18:30.702Z,99645.59
2023-04-12T05:23:42.860Z,99639.09
2023-04-12T05:28:47.721Z,99644.66
2023-04-12T05:33:51.080Z,99639.34
2023-04-12T05:38:54.886Z,99607.03
2023-04-12T05:43:57.742Z,99615.56
2023-04-12T05:49:00.729Z,99634.63
2023-04-12T05:54:07.617Z,99626.78
2023-04-12T05:59:12.530Z,99633.19
2023-04-12T06:04:15.554Z,99640.16
2023-04-12T06:09:19.365Z,99642.97
2023-04-12T06:14:21.991Z,99645.94
2023-04-12T06:19:24.668Z,99642.13
2023-04-12T06:24:27.265Z,99616.25
2023-04-12T06:29:30.578Z,99627.56
2023-04-12T06:34:34.852Z,99628.63
2023-04-12T06:39:42.818Z,99622.47
2023-04-12T06:44:45.767Z,99623.41
2023-04-12T06:49:48.555Z,99615.94
2023-04-12T06:54:51.171Z,99623.50
2023-04-12T06:59:53.775Z,99612.88
2023-04-12T07:04:56.397Z,99620.94
2023-04-12T07:10:00.481Z,99617.41
2023-04-12T07:15:03.234Z,99616.34
2023-04-12T07:20:06.189Z,99622.88
2023-04-12T07:25:10.922Z,99612.22
2023-04-12T07:30:14.555Z,99622.75
2023-04-12T07:35:17.260Z,99617.22
2023-04-12T07:40:20.562Z,99599.09
2023-04-12T07:45:23.317Z,99612.38
2023-04-12T07:50:26.104Z,99601.47
2023-04-12T07:55:28.734Z,99604.03
2023-04-12T08:00:32.689Z,99590.78
2023-04-12T08:05:35.383Z,99602.19
2023-04-12T08:10:40.583Z,99588.81
2023-04-12T08:15:47.662Z,99587.03
2023-04-12T08:20:50.694Z,99578.69
2023-04-12T08:26:00.124Z,99585.25
2023-04-12T08:31:03.049Z,99574.53
2023-04-12T08:36:06.271Z,99561.91
2023-04-12T08:41:08.936Z,99561.00
2023-04-12T08:46:15.992Z,99571.63
2023-04-12T08:51:20.233Z,99555.91
2023-04-12T08:56:24.054Z,99573.91
2023-04-12T09:01:27.278Z,99537.13
2023-04-12T09:06:30.050Z,99564.09
2023-04-12T09:11:32.830Z,99559.56
2023-04-12T09:16:36.291Z,99550.75
2023-04-12T09:21:53.370Z,99534.00
2023-04-12T09:27:06.487Z,99548.81
2023-04-12T09:32:09.944Z,99533.50
2023-04-12T09:37:18.275Z,99540.69
2023-04-12T09:47:42.014Z,99526.19
2023-04-12T09:52:44.958Z,99529.81
2023-04-12T09:57:51.098Z,99514.50
2023-04-12T10:02:55.926Z,99518.25
2023-04-12T10:07:59.037Z,99479.41
2023-04-12T10:13:06.906Z,99511.03
2023-04-12T10:18:11.866Z,99515.25
2023-04-12T10:23:14.837Z,99513.94
2023-04-12T10:28:21.774Z,99495.56
2023-04-12T10:33:30.903Z,99489.81
2023-04-12T10:38:48.849Z,99489.31
2023-04-12T10:44:28.917Z,99493.81
2023-04-12T10:49:32.475Z,99484.06
2023-04-12T10:54:36.004Z,99480.09
2023-04-12T10:59:57.513Z,99473.06
2023-04-12T11:05:10.943Z,99438.94
2023-04-12T11:10:47.113Z,99453.31
2023-04-12T11:16:06.884Z,99439.97
2023-04-12T11:21:10.540Z,99406.69
2023-04-12T11:26:13.424Z,99407.66
2023-04-12T11:31:20.460Z,99427.72
2023-04-12T11:36:23.185Z,99420.88
2023-04-12T11:41:26.039Z,99416.38
2023-04-12T11:46:34.359Z,99402.31
2023-04-12T11:51:36.993Z,99414.75
2023-04-12T11:56:40.450Z,99407.22
2023-04-12T12:01:43.189Z,99404.69
2023-04-12T12:06:47.341Z,99420.41
2023-04-12T12:11:51.441Z,99395.47
2023-04-12T12:16:59.538Z,99395.97
2023-04-12T12:22:13.033Z,99391.28
2023-04-12T12:27:23.479Z,99360.13
2023-04-12T12:32:27.403Z,99374.91
2023-04-12T12:37:31.164Z,99375.38
2023-04-12T12:42:36.685Z,99363.16
2023-04-12T12:47:52.062Z,99360.72
2023-04-12T12:52:56.173Z,99357.59
2023-04-12T12:58:06.604Z,99360.84
2023-04-12T13:03:10.380Z,99346.44
2023-04-12T13:08:13.095Z,99330.75
2023-04-12T13:13:15.834Z,99339.03
2023-04-12T13:18:18.582Z,99343.72
2023-04-12T13:23:21.237Z,99337.81
2023-04-12T13:28:23.902Z,99333.28
2023-04-12T13:33:27.219Z,99333.38
2023-04-12T13:38:31.387Z,99332.53
2023-04-12T13:43:34.063Z,99331.19
2023-04-12T13:48:37.495Z,99332.41
2023-04-12T13:53:40.139Z,99299.03
2023-04-12T13:58:43.298Z,99325.94
2023-04-12T14:03:46.054Z,99287.66
2023-04-12T14:08:48.661Z,99318.34
2023-04-12T14:13:51.532Z,99304.69
2023-04-12T14:18:54.138Z,99321.25
2023-04-12T14:23:57.529Z,99319.94
2023-04-12T14:29:00.714Z,99327.53
2023-04-12T14:34:04.298Z,99312.31
2023-04-12T14:39:10.440Z,99299.88
2023-04-12T14:44:13.603Z,99302.44
2023-04-12T14:49:16.268Z,99325.47
2023-04-12T14:54:19.068Z,99305.84
2023-04-12T14:59:21.838Z,99306.31
2023-04-12T15:04:24.781Z,99309.88
2023-04-12T15:09:28.797Z,99313.72
2023-04-12T15:14:31.571Z,99302.22
2023-04-12T15:19:34.202Z,99303.88
2023-04-12T15:24:37.155Z,99302.53
2023-04-12T15:29:40.065Z,99281.63
2023-04-12T15:34:42.732Z,99298.84
2023-04-12T15:39:45.741Z,99303.28
2023-04-12T15:44:48.296Z,99294.94
2023-04-12T15:49:51.459Z,99294.66
2023-04-12T15:54:54.104Z,99295.25
2023-04-12T15:59:59.506Z,99287.28
2023-04-12T16:05:02.315Z,99288.28
2023-04-12T16:10:06.493Z,99258.28
2023-04-12T16:15:09.401Z,99293.06
2023-04-12T16:20:13.523Z,99287.84
2023-04-12T16:25:20.034Z,99295.53
2023-04-12T16:30:23.106Z,99287.84
2023-04-12T16:35:25.964Z,99287.66
2023-04-12T16:40:28.883Z,99288.00
2023-04-12T16:45:32.145Z,99297.00
2023-04-12T16:50:34.783Z,99281.00
2023-04-12T16:55:44.575Z,99305.34
2023-04-12T17:00:47.203Z,99265.97
2023-04-12T17:05:50.701Z,99310.69
2023-04-12T17:10:54.556Z,99297.34
2023-04-12T17:15:57.724Z,99313.94
2023-04-12T17:21:00.710Z,99298.78
2023-04-12T17:26:04.573Z,99334.56
2023-04-12T17:31:08.932Z,99315.22
2023-04-12T17:36:12.164Z,99336.38
2023-04-12T17:41:17.682Z,99340.53
2023-04-12T17:46:20.565Z,99328.84
2023-04-12T17:51:23.310Z,99342.97
2023-04-12T17:56:26.383Z,99338.28
2023-04-12T18:01:29.067Z,99338.59
2023-04-12T18:06:32.567Z,99331.03
2023-04-12T18:11:38.889Z,99340.28
2023-04-12T18:16:41.991Z,99325.19
2023-04-12T18:21:48.506Z,99345.94
2023-04-12T18:26:51.266Z,99346.91
2023-04-12T18:31:53.998Z,99342.34
2023-04-12T18:36:56.990Z,99346.41
2023-04-12T18:42:01.553Z,99357.09
2023-04-12T18:47:04.510Z,99362.44
2023-04-12T18:52:07.417Z,99336.34
2023-04-12T18:57:10.760Z,99356.97
2023-04-12T19:02:15.219Z,99350.94
2023-04-12T19:07:18.040Z,99364.75
2023-04-12T19:12:21.007Z,99360.78
2023-04-12T19:17:27.813Z,99338.47
2023-04-12T19:22:30.920Z,99353.78
2023-04-12T19:27:39.227Z,99342.50
2023-04-12T19:32:42.522Z,99340.66
2023-04-12T19:37:45.471Z,99347.63
2023-04-12T19:42:48.458Z,99317.06
2023-04-12T19:47:51.360Z,99343.66
2023-04-12T19:52:54.136Z,99338.38
2023-04-12T19:57:56.962Z,99340.31
2023-04-12T20:02:59.636Z,99307.00
2023-04-12T20:08:02.302Z,99344.75
2023-04-12T20:13:08.224Z,99327.78
2023-04-12T20:18:13.013Z,99338.84
2023-04-12T20:23:15.698Z,99342.25
2023-04-12T20:28:18.623Z,99347.31
2023-04-12T20:33:22.094Z,99335.97
2023-04-12T20:38:26.559Z,99337.94
2023-04-12T20:43:29.184Z,99313.28
2023-04-12T20:48:32.247Z,99335.88
2023-04-12T20:53:36.119Z,99336.63
2023-04-12T20:58:39.091Z,99332.09
2023-04-12T21:03:43.433Z,99323.41
2023-04-12T21:08:47.562Z,99325.78
2023-04-12T21:13:50.900Z,99329.94
2023-04-12T21:18:53.793Z,99313.78
2023-04-12T21:23:56.549Z,99338.03
2023-04-12T21:28:59.518Z,99344.28
2023-04-12T21:34:02.336Z,99339.84
2023-04-12T21:39:04.983Z,99348.56
2023-04-12T21:44:08.017Z,99324.59
2023-04-12T21:49:10.814Z,99333.13
2023-04-12T21:54:13.487Z,99344.25
2023-04-12T21:59:16.651Z,99339.09
2023-04-12T22:04:19.401Z,99343.25
2023-04-12T22:09:22.174Z,99310.66
2023-04-12T22:14:24.785Z,99301.91
2023-04-12T22:19:27.617Z,99331.72
2023-04-12T22:24:30.695Z,99328.09
2023-04-12T22:29:34.366Z,99326.50
2023-04-12T22:34:39.722Z,99302.66
2023-04-12T22:39:42.888Z,99309.47
2023-04-12T22:44:45.519Z,99316.44
2023-04-12T22:49:51.091Z,99314.09
2023-04-12T22:54:53.755Z,99321.13
2023-04-12T22:59:57.856Z,99323.66
2023-04-12T23:05:00.923Z,99309.31
2023-04-12T23:10:03.983Z,99317.09
2023-04-12T23:15:07.172Z,99317.16
2023-04-12T23:20:13.440Z,99317.19
2023-04-12T23:25:16.180Z,99312.09
2023-04-12T23:30:20.389Z,99297.47
2023-04-12T23:35:23.007Z,99304.44
2023-04-12T23:40:25.717Z,99276.25
2023-04-12T23:45:28.357Z,99289.88
2023-04-12T23:50:30.984Z,99289.09
2023-04-12T23:55:33.728Z,99287.50
